createdAt,value
2022-12-11T00:00:57.727Z,8.44
2022-12-11T00:03:25.740Z,8.16
2022-12-11T00:05:53.733Z,8.45
2022-12-11T00:08:21.812Z,8.08
2022-12-11T00:10:50.486Z,8.15
2022-12-11T00:13:19.849Z,8.02
2022-12-11T00:15:47.829Z,7.77
2022-12-11T00:18:15.976Z,7.85
2022-12-11T00:20:44.105Z,7.84
2022-12-11T00:23:12.365Z,7.75
2022-12-11T00:25:43.924Z,7.58
2022-12-11T00:28:12.053Z,7.47
2022-12-11T00:30:42.872Z,7.62
2022-12-11T00:33:11.530Z,7.52
2022-12-11T00:35:40.141Z,7.64
2022-12-11T00:38:08.254Z,7.85
2022-12-11T00:40:37.032Z,7.84
2022-12-11T00:43:05.259Z,7.91
2022-12-11T00:45:36.701Z,8.01
2022-12-11T00:48:06.955Z,7.84
2022-12-11T00:50:35.654Z,7.92
2022-12-11T00:53:04.544Z,8.22
2022-12-11T00:55:32.694Z,8.22
2022-12-11T00:58:00.941Z,8.16
2022-12-11T01:00:28.848Z,8.27
2022-12-11T01:02:56.796Z,8.42
2022-12-11T01:05:26.201Z,8.06
2022-12-11T01:07:54.214Z,8.32
2022-12-11T01:10:27.155Z,8.37
2022-12-11T01:12:57.365Z,8.27
2022-12-11T01:15:27.729Z,8.11
2022-12-11T01:17:56.057Z,8.30
2022-12-11T01:20:26.937Z,8.44
2022-12-11T01:22:57.916Z,8.48
2022-12-11T01:25:26.265Z,8.59
2022-12-11T01:27:55.154Z,8.66
2022-12-11T01:30:25.085Z,8.65
2022-12-11T01:32:53.544Z,8.67
2022-12-11T01:35:21.931Z,8.78
2022-12-11T01:37:51.312Z,8.75
2022-12-11T01:40:21.037Z,8.83
2022-12-11T01:42:49.101Z,8.86
2022-12-11T01:45:36.551Z,9.16
2022-12-11T01:48:09.505Z,9.20
2022-12-11T01:50:41.195Z,9.24
2022-12-11T01:53:13.229Z,9.25
2022-12-11T01:55:42.341Z,9.01
2022-12-11T01:58:11.693Z,9.07
2022-12-11T02:00:40.290Z,8.77
2022-12-11T02:03:08.237Z,8.77
2022-12-11T02:05:36.172Z,8.81
2022-12-11T02:08:05.358Z,8.89
2022-12-11T02:10:44.805Z,8.97
2022-12-11T02:13:18.857Z,9.02
2022-12-11T02:15:53.274Z,8.66
2022-12-11T02:18:31.379Z,8.88
2022-12-11T02:21:07.072Z,8.87
2022-12-11T02:23:55.301Z,8.87
2022-12-11T02:26:41.778Z,8.97
2022-12-11T02:29:19.104Z,8.92
2022-12-11T02:31:51.914Z,9.36
2022-12-11T02:34:24.720Z,9.34
2022-12-11T02:36:57.403Z,9.43
2022-12-11T02:39:28.335Z,9.55
2022-12-11T02:41:57.694Z,9.68
2022-12-11T02:44:31.527Z,9.80
2022-12-11T02:47:00.412Z,9.15
2022-12-11T02:49:30.161Z,9.37
2022-12-11T02:52:00.375Z,9.59
2022-12-11T02:54:31.682Z,9.62
2022-12-11T02:57:04.838Z,9.47
2022-12-11T02:59:36.972Z,9.44
2022-12-11T03:02:06.159Z,9.70
2022-12-11T03:04:36.358Z,9.60
2022-12-11T03:07:12.186Z,9.70
2022-12-11T03:09:40.702Z,9.53
2022-12-11T03:12:11.239Z,9.63
2022-12-11T03:14:42.734Z,9.53
2022-12-11T03:17:16.573Z,9.49
2022-12-11T03:19:51.284Z,9.83
2022-12-11T03:22:24.586Z,10.22
2022-12-11T03:24:55.632Z,10.45
2022-12-11T03:27:28.061Z,10.59
2022-12-11T03:30:01.516Z,10.66
2022-12-11T03:32:33.011Z,10.79
2022-12-11T03:35:04.731Z,10.91
2022-12-11T03:37:37.752Z,11.00
2022-12-11T03:40:11.360Z,11.33
2022-12-11T03:42:41.132Z,11.65
2022-12-11T03:45:12.114Z,11.61
2022-12-11T03:47:42.189Z,11.57
2022-12-11T03:50:13.133Z,11.60
2022-12-11T03:52:45.964Z,11.25
2022-12-11T03:55:17.254Z,11.14
2022-12-11T03:57:45.785Z,11.08
2022-12-11T04:00:18.297Z,11.05
2022-12-11T04:03:12.713Z,10.84
2022-12-11T04:05:41.822Z,10.98
2022-12-11T04:08:09.891Z,10.98
2022-12-11T04:10:37.934Z,10.87
2022-12-11T04:13:06.114Z,10.83
2022-12-11T04:15:34.686Z,10.77
2022-12-11T04:18:20.296Z,10.87
2022-12-11T04:21:05.832Z,10.83
2022-12-11T04:23:51.168Z,10.76
2022-12-11T04:26:21.382Z,10.81
2022-12-11T04:28:50.444Z,10.68
2022-12-11T04:31:21.615Z,10.85
2022-12-11T04:33:50.074Z,10.90
2022-12-11T04:36:18.071Z,10.88
2022-12-11T04:38:46.091Z,10.80
2022-12-11T04:41:16.761Z,10.96
2022-12-11T04:43:45.507Z,11.07
2022-12-11T04:46:15.986Z,11.07
2022-12-11T04:48:46.247Z,11.28
2022-12-11T04:51:14.254Z,11.39
2022-12-11T04:53:42.556Z,11.57
2022-12-11T04:56:12.665Z,11.65
2022-12-11T04:58:41.395Z,11.74
2022-12-11T05:01:10.333Z,11.86
2022-12-11T05:03:38.898Z,12.02
2022-12-11T05:06:09.609Z,11.97
2022-12-11T05:08:40.392Z,12.03
2022-12-11T05:11:10.266Z,12.03
2022-12-11T05:13:38.369Z,12.10
2022-12-11T05:16:07.205Z,11.98
2022-12-11T05:18:35.303Z,11.68
2022-12-11T05:21:05.768Z,11.28
2022-12-11T05:23:35.401Z,11.49
2022-12-11T05:26:05.601Z,11.54
2022-12-11T05:28:35.770Z,11.43
2022-12-11T05:31:05.975Z,11.19
2022-12-11T05:33:34.305Z,10.64
2022-12-11T05:36:02.613Z,10.70
2022-12-11T05:38:41.192Z,10.68
2022-12-11T05:41:09.215Z,10.73
2022-12-11T05:43:37.959Z,10.60
2022-12-11T05:46:09.761Z,10.59
2022-12-11T05:48:38.811Z,10.41
2022-12-11T05:51:08.370Z,10.30
2022-12-11T05:53:37.721Z,10.42
2022-12-11T05:56:09.397Z,10.11
2022-12-11T05:58:37.296Z,10.35
2022-12-11T06:01:09.926Z,10.19
2022-12-11T06:03:38.203Z,10.00
2022-12-11T06:06:07.469Z,9.96
2022-12-11T06:08:35.729Z,10.11
2022-12-11T06:11:04.333Z,10.24
2022-12-11T06:13:33.752Z,10.43
2022-12-11T06:16:03.534Z,10.27
2022-12-11T06:18:31.736Z,10.12
2022-12-11T06:20:59.752Z,10.24
2022-12-11T06:23:27.632Z,10.35
2022-12-11T06:25:55.601Z,10.34
2022-12-11T06:28:23.527Z,10.26
2022-12-11T06:30:52.810Z,10.30
2022-12-11T06:33:20.746Z,10.19
2022-12-11T06:35:48.816Z,10.29
2022-12-11T06:38:17.506Z,10.35
2022-12-11T06:40:45.469Z,10.37
2022-12-11T06:43:13.417Z,10.41
2022-12-11T06:45:41.514Z,10.42
2022-12-11T06:48:10.802Z,10.65
2022-12-11T06:50:39.441Z,10.64
2022-12-11T06:53:07.492Z,10.57
2022-12-11T06:55:36.263Z,10.78
2022-12-11T06:58:04.457Z,10.90
2022-12-11T07:00:32.942Z,10.86
2022-12-11T07:03:00.855Z,10.72
2022-12-11T07:05:30.196Z,10.59
2022-12-11T07:07:58.317Z,10.78
2022-12-11T07:10:26.882Z,10.46
2022-12-11T07:12:55.187Z,10.56
2022-12-11T07:15:23.130Z,10.61
2022-12-11T07:17:51.397Z,10.47
2022-12-11T07:20:19.352Z,10.53
2022-12-11T07:22:48.672Z,10.55
2022-12-11T07:25:16.777Z,10.94
2022-12-11T07:27:44.715Z,11.13
2022-12-11T07:30:13.779Z,11.07
2022-12-11T07:32:41.738Z,11.10
2022-12-11T07:35:10.848Z,11.06
2022-12-11T07:37:41.774Z,10.87
2022-12-11T07:40:18.731Z,11.13
2022-12-11T07:42:46.667Z,11.35
2022-12-11T07:45:14.887Z,11.35
2022-12-11T07:47:42.928Z,11.51
2022-12-11T07:50:11.207Z,11.59
2022-12-11T07:52:39.178Z,11.75
2022-12-11T07:55:07.564Z,11.80
2022-12-11T07:57:36.936Z,11.87
2022-12-11T08:00:06.340Z,11.92
2022-12-11T08:02:37.407Z,12.07
2022-12-11T08:05:06.234Z,12.14
2022-12-11T08:07:35.795Z,12.21
2022-12-11T08:10:04.784Z,12.27
2022-12-11T08:12:32.866Z,12.57
2022-12-11T08:15:02.243Z,12.41
2022-12-11T08:17:33.919Z,12.57
2022-12-11T08:20:05.532Z,12.27
2022-12-11T08:22:33.473Z,12.42
2022-12-11T08:25:01.387Z,12.35
2022-12-11T08:27:29.289Z,12.54
2022-12-11T08:29:57.246Z,12.67
2022-12-11T08:32:26.566Z,12.93
2022-12-11T08:34:54.439Z,13.10
2022-12-11T08:37:22.427Z,13.19
2022-12-11T08:39:50.446Z,13.26
2022-12-11T08:42:18.503Z,13.47
2022-12-11T08:44:46.621Z,13.58
2022-12-11T08:47:15.421Z,13.69
2022-12-11T08:49:44.711Z,13.73
2022-12-11T08:52:12.631Z,13.65
2022-12-11T08:54:40.647Z,13.61
2022-12-11T08:57:08.612Z,13.54
2022-12-11T08:59:36.520Z,13.69
2022-12-11T09:02:04.488Z,13.92
2022-12-11T09:04:32.459Z,14.06
2022-12-11T09:07:01.810Z,14.26
2022-12-11T09:09:29.753Z,14.52
2022-12-11T09:11:57.790Z,14.66
2022-12-11T09:14:25.730Z,14.81
2022-12-11T09:16:53.659Z,14.93
2022-12-11T09:19:21.618Z,15.00
2022-12-11T09:21:49.732Z,15.11
2022-12-11T09:24:19.043Z,15.17
2022-12-11T09:26:47.291Z,15.23
2022-12-11T09:29:15.266Z,15.14
2022-12-11T09:31:43.314Z,15.10
2022-12-11T09:34:14.011Z,15.03
2022-12-11T09:36:44.307Z,15.01
2022-12-11T09:39:14.491Z,15.08
2022-12-11T09:41:50.804Z,15.13
2022-12-11T09:44:41.000Z,15.12
2022-12-11T09:47:20.357Z,14.91
2022-12-11T09:49:52.673Z,14.98
2022-12-11T09:52:29.802Z,15.22
2022-12-11T09:55:02.067Z,15.31
2022-12-11T09:57:40.540Z,15.45
2022-12-11T10:00:19.986Z,15.58
2022-12-11T10:03:11.160Z,15.69
2022-12-11T10:05:48.719Z,15.65
2022-12-11T10:08:24.750Z,15.61
2022-12-11T10:10:59.706Z,15.69
2022-12-11T10:13:34.688Z,15.65
2022-12-11T10:16:13.127Z,15.85
2022-12-11T10:18:42.265Z,15.93
2022-12-11T10:21:11.818Z,15.97
2022-12-11T10:23:45.257Z,16.13
2022-12-11T10:26:18.472Z,16.22
2022-12-11T10:28:47.846Z,16.27
2022-12-11T10:31:19.188Z,16.35
2022-12-11T10:33:57.636Z,16.35
2022-12-11T10:36:30.228Z,16.22
2022-12-11T10:38:58.744Z,16.27
2022-12-11T10:41:37.797Z,16.36
2022-12-11T10:44:17.845Z,16.42
2022-12-11T10:46:46.381Z,16.34
2022-12-11T10:49:24.567Z,16.39
2022-12-11T10:51:53.926Z,16.43
2022-12-11T10:54:34.757Z,16.47
2022-12-11T10:57:04.243Z,16.61
2022-12-11T10:59:38.010Z,16.70
2022-12-11T11:02:07.666Z,16.38
2022-12-11T11:04:39.122Z,16.21
2022-12-11T11:07:15.212Z,16.36
2022-12-11T11:09:43.173Z,16.48
2022-12-11T11:12:22.927Z,16.56
2022-12-11T11:15:01.935Z,16.52
2022-12-11T11:17:35.155Z,16.52
2022-12-11T11:20:13.158Z,16.57
2022-12-11T11:22:45.601Z,16.44
2022-12-11T11:25:19.594Z,16.47
2022-12-11T11:27:54.023Z,16.64
2022-12-11T11:30:25.633Z,16.81
2022-12-11T11:32:56.349Z,16.84
2022-12-11T11:35:26.644Z,16.81
2022-12-11T11:38:04.592Z,16.75
2022-12-11T11:40:37.988Z,16.87
2022-12-11T11:43:15.327Z,16.77
2022-12-11T11:45:48.757Z,16.81
2022-12-11T11:48:31.895Z,16.96
2022-12-11T11:51:00.502Z,16.67
2022-12-11T11:53:37.309Z,16.77
2022-12-11T11:56:18.363Z,16.82
2022-12-11T11:58:51.571Z,16.85
2022-12-11T12:01:22.005Z,16.86
2022-12-11T12:03:50.953Z,16.78
2022-12-11T12:06:30.036Z,16.58
2022-12-11T12:09:06.548Z,16.65
2022-12-11T12:11:42.025Z,16.29
2022-12-11T12:14:50.501Z,16.32
2022-12-11T12:17:19.559Z,16.39
2022-12-11T12:19:56.456Z,16.53
2022-12-11T12:22:42.227Z,16.54
2022-12-11T12:25:19.983Z,16.60
2022-12-11T12:27:54.218Z,16.66
2022-12-11T12:30:23.813Z,16.59
2022-12-11T12:33:11.922Z,16.56
2022-12-11T12:35:44.573Z,16.55
2022-12-11T12:38:18.874Z,16.46
2022-12-11T12:40:57.738Z,16.51
2022-12-11T12:43:48.652Z,16.62
2022-12-11T12:46:27.315Z,16.43
2022-12-11T12:48:59.983Z,16.40
2022-12-11T12:51:29.081Z,16.37
2022-12-11T12:54:00.348Z,16.53
2022-12-11T12:56:30.436Z,16.51
2022-12-11T12:58:58.434Z,16.38
2022-12-11T13:01:28.575Z,16.45
2022-12-11T13:04:02.113Z,16.57
2022-12-11T13:06:37.036Z,16.33
2022-12-11T13:09:16.128Z,16.36
2022-12-11T13:11:44.360Z,16.32
2022-12-11T13:14:28.542Z,16.28
2022-12-11T13:17:09.472Z,16.24
2022-12-11T13:19:42.732Z,16.18
2022-12-11T13:22:23.437Z,16.24
2022-12-11T13:25:01.658Z,16.10
2022-12-11T13:27:39.403Z,16.08
2022-12-11T13:30:21.839Z,16.15
2022-12-11T13:32:59.847Z,16.25
2022-12-11T13:35:30.346Z,16.35
2022-12-11T13:38:02.709Z,16.17
2022-12-11T13:40:37.990Z,16.17
2022-12-11T13:43:09.515Z,16.24
2022-12-11T13:45:44.723Z,16.18
2022-12-11T13:48:20.486Z,16.10
2022-12-11T13:50:51.923Z,15.93
2022-12-11T13:53:22.235Z,15.93
2022-12-11T13:55:58.617Z,15.90
2022-12-11T13:58:26.803Z,15.95
2022-12-11T14:01:04.137Z,15.97
2022-12-11T14:03:32.975Z,16.00
2022-12-11T14:06:03.173Z,15.99
2022-12-11T14:08:37.270Z,15.84
2022-12-11T14:11:06.324Z,15.85
2022-12-11T14:13:36.562Z,15.65
2022-12-11T14:16:07.764Z,15.67
2022-12-11T14:18:37.873Z,15.44
2022-12-11T14:21:07.822Z,15.54
2022-12-11T14:23:37.452Z,15.41
2022-12-11T14:26:16.500Z,15.21
2022-12-11T14:28:44.959Z,15.11
2022-12-11T14:31:16.987Z,14.86
2022-12-11T14:33:49.031Z,14.88
2022-12-11T14:36:18.776Z,14.86
2022-12-11T14:38:50.594Z,14.71
2022-12-11T14:41:24.312Z,14.69
2022-12-11T14:43:55.872Z,14.94
2022-12-11T14:46:30.668Z,15.06
2022-12-11T14:49:26.006Z,15.22
2022-12-11T14:51:58.550Z,15.25
2022-12-11T14:54:32.874Z,15.26
2022-12-11T14:57:02.947Z,15.36
2022-12-11T14:59:33.134Z,15.43
2022-12-11T15:02:03.109Z,15.48
2022-12-11T15:04:33.050Z,15.53
2022-12-11T15:07:02.420Z,15.58
2022-12-11T15:09:37.861Z,15.60
2022-12-11T15:12:12.478Z,15.64
2022-12-11T15:14:46.884Z,15.67
2022-12-11T15:17:31.764Z,15.70
2022-12-11T15:20:07.511Z,15.60
2022-12-11T15:22:37.642Z,15.66
2022-12-11T15:25:06.499Z,15.68
2022-12-11T15:27:37.031Z,15.70
2022-12-11T15:30:17.784Z,15.68
2022-12-11T15:32:45.733Z,15.66
2022-12-11T15:35:24.703Z,15.58
2022-12-11T15:37:56.149Z,15.66
2022-12-11T15:40:24.950Z,15.56
2022-12-11T15:42:54.892Z,15.49
2022-12-11T15:45:24.830Z,15.25
2022-12-11T15:47:53.307Z,15.15
2022-12-11T15:50:23.437Z,15.07
2022-12-11T15:52:52.758Z,15.03
2022-12-11T15:55:24.237Z,14.91
2022-12-11T15:57:55.259Z,14.92
2022-12-11T16:00:23.962Z,14.92
2022-12-11T16:02:52.233Z,15.00
2022-12-11T16:05:20.526Z,14.90
2022-12-11T16:07:49.368Z,15.02
2022-12-11T16:10:19.462Z,15.04
2022-12-11T16:12:48.746Z,15.08
2022-12-11T16:15:23.155Z,15.09
2022-12-11T16:17:51.925Z,15.11
2022-12-11T16:20:20.118Z,15.17
2022-12-11T16:22:48.010Z,15.15
2022-12-11T16:25:16.090Z,15.17
2022-12-11T16:27:44.083Z,15.01
2022-12-11T16:30:15.074Z,15.10
2022-12-11T16:32:43.738Z,15.12
2022-12-11T16:35:11.946Z,15.02
2022-12-11T16:37:40.213Z,15.06
2022-12-11T16:40:09.719Z,15.06
2022-12-11T16:42:39.036Z,15.10
2022-12-11T16:45:09.553Z,15.06
2022-12-11T16:47:39.145Z,14.87
2022-12-11T16:50:08.094Z,14.94
2022-12-11T16:52:36.171Z,14.88
2022-12-11T16:55:04.203Z,14.82
2022-12-11T16:57:32.637Z,14.85
2022-12-11T17:00:04.203Z,14.58
2022-12-11T17:02:32.354Z,14.73
2022-12-11T17:05:01.667Z,14.69
2022-12-11T17:07:29.718Z,14.59
2022-12-11T17:09:57.649Z,14.48
2022-12-11T17:12:27.789Z,14.11
2022-12-11T17:14:55.783Z,13.78
2022-12-11T17:17:24.234Z,13.62
2022-12-11T17:19:52.207Z,13.50
2022-12-11T17:22:21.880Z,13.28
2022-12-11T17:24:49.900Z,13.19
2022-12-11T17:27:18.087Z,13.17
2022-12-11T17:29:47.406Z,13.01
2022-12-11T17:32:16.714Z,13.00
2022-12-11T17:34:44.834Z,12.90
2022-12-11T17:37:13.162Z,12.83
2022-12-11T17:39:42.458Z,12.91
2022-12-11T17:42:10.435Z,12.90
2022-12-11T17:44:38.999Z,12.71
2022-12-11T17:47:11.089Z,12.72
2022-12-11T17:49:39.487Z,12.73
2022-12-11T17:52:07.745Z,12.68
2022-12-11T17:54:36.157Z,12.44
2022-12-11T17:57:06.680Z,12.57
2022-12-11T17:59:34.988Z,12.53
2022-12-11T18:02:02.977Z,12.33
2022-12-11T18:04:31.243Z,12.38
2022-12-11T18:06:59.548Z,12.23
2022-12-11T18:09:27.415Z,12.21
2022-12-11T18:11:55.705Z,11.91
2022-12-11T18:14:25.542Z,11.85
2022-12-11T18:16:53.726Z,11.91
2022-12-11T18:19:22.790Z,12.01
2022-12-11T18:21:50.822Z,11.79
2022-12-11T18:24:18.764Z,11.80
2022-12-11T18:26:46.758Z,11.71
2022-12-11T18:29:14.760Z,11.50
2022-12-11T18:31:44.040Z,11.38
2022-12-11T18:34:12.393Z,11.17
2022-12-11T18:36:41.664Z,11.15
2022-12-11T18:39:09.756Z,11.20
2022-12-11T18:41:37.840Z,11.22
2022-12-11T18:44:09.706Z,11.06
2022-12-11T18:46:39.979Z,10.93
2022-12-11T18:49:09.329Z,10.97
2022-12-11T18:51:37.328Z,11.01
2022-12-11T18:54:05.499Z,10.85
2022-12-11T18:56:33.486Z,11.06
2022-12-11T18:59:01.421Z,11.03
2022-12-11T19:01:30.313Z,10.89
2022-12-11T19:04:04.452Z,10.96
2022-12-11T19:06:35.730Z,10.92
2022-12-11T19:09:05.908Z,10.88
2022-12-11T19:11:35.988Z,10.71
2022-12-11T19:14:06.103Z,10.86
2022-12-11T19:16:35.958Z,10.84
2022-12-11T19:19:06.901Z,10.64
2022-12-11T19:21:37.694Z,10.50
2022-12-11T19:24:06.770Z,10.37
2022-12-11T19:26:35.182Z,10.50
2022-12-11T19:29:03.176Z,10.28
2022-12-11T19:31:33.709Z,10.10
2022-12-11T19:34:03.131Z,10.19
2022-12-11T19:36:33.641Z,10.18
2022-12-11T19:39:07.105Z,10.24
2022-12-11T19:41:38.044Z,10.19
2022-12-11T19:44:06.101Z,10.06
2022-12-11T19:46:34.046Z,9.93
2022-12-11T19:49:02.454Z,10.01
2022-12-11T19:51:33.880Z,9.90
2022-12-11T19:54:04.106Z,9.94
2022-12-11T19:56:33.638Z,10.01
2022-12-11T19:59:02.961Z,9.90
2022-12-11T20:01:33.360Z,9.87
2022-12-11T20:04:03.904Z,9.76
2022-12-11T20:06:33.890Z,9.76
2022-12-11T20:09:04.163Z,9.50
2022-12-11T20:11:33.109Z,9.69
2022-12-11T20:14:01.497Z,9.55
2022-12-11T20:17:01.573Z,9.44
2022-12-11T20:19:17.829Z,9.63
2022-12-11T20:21:45.845Z,9.63
2022-12-11T20:24:15.174Z,9.45
2022-12-11T20:26:43.155Z,9.48
2022-12-11T20:29:11.091Z,9.43
2022-12-11T20:31:39.348Z,9.53
2022-12-11T20:34:07.857Z,9.48
2022-12-11T20:36:36.369Z,9.45
2022-12-11T20:39:06.215Z,9.28
2022-12-11T20:41:35.625Z,9.39
2022-12-11T20:44:03.695Z,9.46
2022-12-11T20:46:31.713Z,9.36
2022-12-11T20:48:59.787Z,9.34
2022-12-11T20:51:36.610Z,9.14
2022-12-11T20:54:04.843Z,9.25
2022-12-11T20:56:32.905Z,9.13
2022-12-11T20:59:02.436Z,9.11
2022-12-11T21:01:32.501Z,9.08
2022-12-11T21:04:02.462Z,8.96
2022-12-11T21:06:32.172Z,8.86
2022-12-11T21:09:01.373Z,8.58
2022-12-11T21:11:29.545Z,8.58
2022-12-11T21:13:58.174Z,8.22
2022-12-11T21:16:27.829Z,8.00
2022-12-11T21:18:56.386Z,8.10
2022-12-11T21:21:24.866Z,8.13
2022-12-11T21:23:52.909Z,7.98
2022-12-11T21:26:21.389Z,7.84
2022-12-11T21:28:49.312Z,8.05
2022-12-11T21:31:19.018Z,7.92
2022-12-11T21:33:49.345Z,7.91
2022-12-11T21:36:18.093Z,7.95
2022-12-11T21:38:47.286Z,8.04
2022-12-11T21:41:18.068Z,8.18
2022-12-11T21:44:49.823Z,8.18
2022-12-11T21:46:35.501Z,8.01
2022-12-11T21:49:05.129Z,7.91
2022-12-11T21:51:37.897Z,7.78
2022-12-11T21:54:10.383Z,7.68
2022-12-11T21:56:38.298Z,7.60
2022-12-11T21:59:06.700Z,7.58
2022-12-11T22:01:38.238Z,7.65
2022-12-11T22:04:08.614Z,7.43
2022-12-11T22:06:36.755Z,7.42
2022-12-11T22:09:05.432Z,7.44
2022-12-11T22:11:35.545Z,7.14
2022-12-11T22:14:04.091Z,7.35
2022-12-11T22:16:32.105Z,7.27
2022-12-11T22:19:00.100Z,7.20
2022-12-11T22:21:29.457Z,7.04
2022-12-11T22:23:57.506Z,6.99
2022-12-11T22:26:27.938Z,6.99
2022-12-11T22:28:56.930Z,6.98
2022-12-11T22:31:27.118Z,6.67
2022-12-11T22:33:56.113Z,6.69
2022-12-11T22:36:25.288Z,6.85
2022-12-11T22:38:54.833Z,7.03
2022-12-11T22:41:26.286Z,6.92
2022-12-11T22:43:55.072Z,6.82
2022-12-11T22:46:26.096Z,6.98
2022-12-11T22:48:54.557Z,7.07
2022-12-11T22:51:23.316Z,6.97
2022-12-11T22:53:51.540Z,6.91
2022-12-11T22:56:20.882Z,7.00
2022-12-11T22:58:48.851Z,6.86
2022-12-11T23:01:19.592Z,6.83
2022-12-11T23:03:47.642Z,6.68
2022-12-11T23:06:18.911Z,6.84
2022-12-11T23:08:46.906Z,6.92
2022-12-11T23:11:16.721Z,7.05
2022-12-11T23:13:46.084Z,6.98
2022-12-11T23:16:14.416Z,6.88
2022-12-11T23:18:42.916Z,6.91
2022-12-11T23:21:12.070Z,6.83
2022-12-11T23:23:40.713Z,6.91
2022-12-11T23:26:10.779Z,6.86
2022-12-11T23:28:39.178Z,6.82
2022-12-11T23:31:09.083Z,6.77
2022-12-11T23:33:37.079Z,6.92
2022-12-11T23:36:05.289Z,6.97
2022-12-11T23:38:33.563Z,7.04
2022-12-11T23:41:03.202Z,7.03
2022-12-11T23:43:31.345Z,7.07
2022-12-11T23:45:59.327Z,7.10
2022-12-11T23:48:28.650Z,7.24
2022-12-11T23:51:00.464Z,7.28
2022-12-11T23:53:28.434Z,6.96
2022-12-11T23:55:56.565Z,7.00
2022-12-11T23:58:24.461Z,6.91
